createdAt,value
2023-02-06T00:00:36.472Z,104071.25
2023-02-06T00:03:04.444Z,104064.78
2023-02-06T00:05:31.499Z,104059.16
2023-02-06T00:07:58.151Z,104060.72
2023-02-06T00:10:25.467Z,104065.88
2023-02-06T00:12:52.853Z,104057.66
2023-02-06T00:15:20.256Z,104063.63
2023-02-06T00:17:46.873Z,104054.41
2023-02-06T00:20:14.237Z,104049.25
2023-02-06T00:22:41.337Z,104039.38
2023-02-06T00:25:08.077Z,104036.44
2023-02-06T00:27:35.346Z,104042.47
2023-02-06T00:30:02.712Z,104035.97
2023-02-06T00:32:29.579Z,104033.69
2023-02-06T00:34:56.184Z,104038.38
2023-02-06T00:37:22.979Z,104033.00
2023-02-06T00:39:49.908Z,104024.25
2023-02-06T00:42:17.100Z,104028.06
2023-02-06T00:44:43.913Z,104028.63
2023-02-06T00:47:10.496Z,104024.00
2023-02-06T00:49:37.292Z,104022.97
2023-02-06T00:52:04.012Z,104025.88
2023-02-06T00:54:30.945Z,104016.34
2023-02-06T00:56:57.756Z,104015.09
2023-02-06T00:59:25.007Z,104010.50
2023-02-06T01:01:52.048Z,104007.78
2023-02-06T01:04:19.533Z,104019.66
2023-02-06T01:06:46.173Z,104017.06
2023-02-06T01:09:13.109Z,104021.84
2023-02-06T01:11:40.132Z,104023.66
2023-02-06T01:14:07.277Z,104028.16
2023-02-06T01:16:33.816Z,104039.38
2023-02-06T01:19:00.791Z,104048.44
2023-02-06T01:21:27.610Z,104047.63
2023-02-06T01:23:55.528Z,104044.03
2023-02-06T01:26:24.151Z,104045.59
2023-02-06T01:28:50.712Z,104044.84
2023-02-06T01:31:17.761Z,104043.59
2023-02-06T01:33:45.137Z,104045.94
2023-02-06T01:36:12.425Z,104059.34
2023-02-06T01:38:39.938Z,104067.88
2023-02-06T01:41:07.336Z,104062.44
2023-02-06T01:43:35.830Z,104053.72
2023-02-06T01:46:02.792Z,104045.97
2023-02-06T01:48:37.884Z,104038.00
2023-02-06T01:51:05.895Z,104046.50
2023-02-06T01:53:33.609Z,104045.00
2023-02-06T01:56:03.079Z,104038.56
2023-02-06T01:58:33.782Z,104044.09
2023-02-06T02:01:01.600Z,104035.00
2023-02-06T02:03:30.111Z,104033.41
2023-02-06T02:06:00.171Z,104041.28
2023-02-06T02:08:36.154Z,104040.63
2023-02-06T02:11:04.516Z,104039.38
2023-02-06T02:13:34.234Z,104043.47
2023-02-06T02:16:25.309Z,104048.50
2023-02-06T02:18:54.832Z,104043.47
2023-02-06T02:21:40.758Z,104038.31
2023-02-06T02:24:27.305Z,104024.44
2023-02-06T02:27:17.388Z,104031.16
2023-02-06T02:29:54.301Z,104036.59
2023-02-06T02:32:40.775Z,104037.34
2023-02-06T02:35:10.803Z,104043.06
2023-02-06T02:37:45.823Z,104036.59
2023-02-06T02:40:24.859Z,104040.19
2023-02-06T02:42:52.102Z,104029.91
2023-02-06T02:45:22.800Z,104040.19
2023-02-06T02:47:56.277Z,104027.47
2023-02-06T02:50:23.155Z,104019.59
2023-02-06T02:52:50.866Z,104014.75
2023-02-06T02:55:20.781Z,104022.97
2023-02-06T02:57:51.411Z,104027.31
2023-02-06T03:00:19.136Z,104029.66
2023-02-06T03:02:47.826Z,104022.47
2023-02-06T03:05:16.819Z,104015.28
2023-02-06T03:07:53.661Z,104020.66
2023-02-06T03:10:23.528Z,104017.34
2023-02-06T03:13:06.809Z,104010.38
2023-02-06T03:15:53.380Z,104009.38
2023-02-06T03:18:47.366Z,104015.53
2023-02-06T03:21:16.950Z,104015.28
2023-02-06T03:23:45.372Z,104022.75
2023-02-06T03:26:16.419Z,104021.22
2023-02-06T03:28:45.699Z,104014.53
2023-02-06T03:31:15.298Z,104005.50
2023-02-06T03:33:46.407Z,104015.06
2023-02-06T03:36:17.155Z,104014.03
2023-02-06T03:38:45.972Z,104019.19
2023-02-06T03:41:13.250Z,104016.88
2023-02-06T03:43:42.711Z,104022.94
2023-02-06T03:46:12.592Z,104030.50
2023-02-06T03:48:43.793Z,104023.28
2023-02-06T03:51:17.829Z,104021.91
2023-02-06T03:53:46.558Z,104023.03
2023-02-06T03:56:19.401Z,104023.03
2023-02-06T03:58:47.414Z,104022.28
2023-02-06T04:01:14.808Z,104014.31
2023-02-06T04:03:41.532Z,104010.72
2023-02-06T04:06:08.312Z,104010.97
2023-02-06T04:08:35.117Z,104010.72
2023-02-06T04:11:02.210Z,103999.28
2023-02-06T04:13:30.213Z,104003.28
2023-02-06T04:15:58.070Z,104012.00
2023-02-06T04:18:25.517Z,104013.56
2023-02-06T04:20:52.980Z,104010.84
2023-02-06T04:23:20.388Z,104018.44
2023-02-06T04:25:48.038Z,104019.47
2023-02-06T04:28:15.167Z,104022.44
2023-02-06T04:30:42.152Z,104022.53
2023-02-06T04:33:08.876Z,104021.28
2023-02-06T04:35:35.899Z,104016.13
2023-02-06T04:38:02.772Z,104025.50
2023-02-06T04:40:29.547Z,104030.25
2023-02-06T04:42:57.043Z,104032.06
2023-02-06T04:45:24.237Z,104030.50
2023-02-06T04:47:51.613Z,104034.50
2023-02-06T04:50:19.234Z,104046.59
2023-02-06T04:52:46.135Z,104041.44
2023-02-06T04:55:13.480Z,104053.41
2023-02-06T04:57:40.152Z,104048.41
2023-02-06T05:00:07.173Z,104046.44
2023-02-06T05:02:39.560Z,104047.84
2023-02-06T05:05:07.598Z,104046.44
2023-02-06T05:07:34.912Z,104046.44
2023-02-06T05:10:02.121Z,104043.34
2023-02-06T05:12:29.705Z,104047.19
2023-02-06T05:14:57.127Z,104055.69
2023-02-06T05:17:24.438Z,104050.41
2023-02-06T05:19:51.929Z,104056.44
2023-02-06T05:22:18.546Z,104063.41
2023-02-06T05:24:46.032Z,104046.41
2023-02-06T05:27:13.372Z,104041.66
2023-02-06T05:29:39.874Z,104043.06
2023-02-06T05:32:06.609Z,104046.66
2023-02-06T05:34:33.933Z,104041.25
2023-02-06T05:37:00.579Z,104032.78
2023-02-06T05:39:27.465Z,104040.59
2023-02-06T05:41:55.022Z,104022.72
2023-02-06T05:44:22.026Z,104017.16
2023-02-06T05:46:49.883Z,104020.25
2023-02-06T05:49:17.236Z,104013.19
2023-02-06T05:51:44.461Z,104011.59
2023-02-06T05:54:11.366Z,104011.59
2023-02-06T05:56:38.098Z,104019.06
2023-02-06T05:59:04.881Z,104020.19
2023-02-06T06:01:32.186Z,104030.50
2023-02-06T06:04:00.172Z,104026.50
2023-02-06T06:06:27.063Z,104028.28
2023-02-06T06:08:54.396Z,104028.28
2023-02-06T06:11:20.958Z,104024.28
2023-02-06T06:13:47.632Z,104012.09
2023-02-06T06:16:14.293Z,104012.81
2023-02-06T06:18:41.320Z,104015.41
2023-02-06T06:21:08.850Z,104013.09
2023-02-06T06:23:36.092Z,104009.50
2023-02-06T06:26:03.135Z,104013.09
2023-02-06T06:28:30.035Z,104006.38
2023-02-06T06:31:01.420Z,104013.09
2023-02-06T06:33:28.698Z,104015.91
2023-02-06T06:35:55.923Z,104009.50
2023-02-06T06:38:23.279Z,104006.38
2023-02-06T06:40:50.036Z,104007.06
2023-02-06T06:43:16.701Z,104018.25
2023-02-06T06:45:43.696Z,104016.69
2023-02-06T06:48:10.739Z,104015.38
2023-02-06T06:50:37.417Z,104009.22
2023-02-06T06:53:04.295Z,104015.38
2023-02-06T06:55:30.818Z,104010.81
2023-02-06T06:57:57.734Z,104003.53
2023-02-06T07:00:25.078Z,104006.69
2023-02-06T07:02:52.480Z,104000.53
2023-02-06T07:05:20.141Z,104000.94
2023-02-06T07:07:46.890Z,103998.72
2023-02-06T07:10:14.185Z,104009.50
2023-02-06T07:12:41.721Z,104012.09
2023-02-06T07:15:08.729Z,104019.53
2023-02-06T07:17:36.638Z,104007.16
2023-02-06T07:20:03.874Z,104011.53
2023-02-06T07:22:30.514Z,104015.59
2023-02-06T07:24:58.072Z,104005.78
2023-02-06T07:27:25.001Z,104007.16
2023-02-06T07:29:51.763Z,104007.03
2023-02-06T07:32:18.584Z,104001.06
2023-02-06T07:34:45.068Z,103999.00
2023-02-06T07:37:11.977Z,103997.97
2023-02-06T07:39:38.991Z,104000.00
2023-02-06T07:42:05.887Z,104006.16
2023-02-06T07:44:32.611Z,104004.88
2023-02-06T07:47:00.001Z,103997.38
2023-02-06T07:49:26.858Z,103993.34
2023-02-06T07:51:53.958Z,104003.75
2023-02-06T07:54:20.929Z,104000.19
2023-02-06T07:56:47.765Z,103997.06
2023-02-06T07:59:14.875Z,103999.75
2023-02-06T08:01:41.545Z,103997.53
2023-02-06T08:04:08.692Z,104009.63
2023-02-06T08:06:35.805Z,104005.03
2023-02-06T08:09:02.948Z,104001.13
2023-02-06T08:11:31.009Z,104007.84
2023-02-06T08:13:57.793Z,104004.22
2023-02-06T08:16:24.982Z,104009.84
2023-02-06T08:18:52.321Z,104000.00
2023-02-06T08:21:21.514Z,103995.34
2023-02-06T08:23:53.280Z,103997.34
2023-02-06T08:26:19.834Z,103990.91
2023-02-06T08:28:48.148Z,103989.31
2023-02-06T08:31:17.491Z,103990.44
2023-02-06T08:33:45.437Z,103994.03
2023-02-06T08:36:12.780Z,103983.63
2023-02-06T08:38:39.762Z,103976.34
2023-02-06T08:41:14.094Z,103977.91
2023-02-06T08:43:40.819Z,103978.16
2023-02-06T08:46:07.590Z,103976.03
2023-02-06T08:48:35.022Z,103974.00
2023-02-06T08:51:03.214Z,103975.66
2023-02-06T08:53:29.936Z,103984.44
2023-02-06T08:56:00.370Z,103987.56
2023-02-06T08:58:27.510Z,103991.06
2023-02-06T09:00:54.637Z,104003.94
2023-02-06T09:03:22.741Z,103998.78
2023-02-06T09:05:50.303Z,104001.28
2023-02-06T09:08:17.737Z,104005.13
2023-02-06T09:10:44.373Z,103992.97
2023-02-06T09:13:11.751Z,104000.16
2023-02-06T09:15:38.613Z,104004.66
2023-02-06T09:18:05.629Z,103991.19
2023-02-06T09:20:32.291Z,103989.59
2023-02-06T09:22:58.827Z,103988.06
2023-02-06T09:25:26.209Z,103994.09
2023-02-06T09:27:52.967Z,104000.59
2023-02-06T09:30:20.355Z,104001.06
2023-02-06T09:32:47.017Z,103997.69
2023-02-06T09:35:13.890Z,104000.16
2023-02-06T09:37:40.706Z,104012.28
2023-02-06T09:40:08.365Z,104016.09
2023-02-06T09:42:37.899Z,104012.94
2023-02-06T09:45:19.923Z,104016.97
2023-02-06T09:47:52.403Z,104021.00
2023-02-06T09:50:23.997Z,104024.38
2023-02-06T09:53:05.832Z,104017.38
2023-02-06T09:55:40.018Z,104021.34
2023-02-06T09:58:13.455Z,104015.84
2023-02-06T10:00:41.465Z,104025.00
2023-02-06T10:03:30.627Z,104026.25
2023-02-06T10:06:08.930Z,104016.44
2023-02-06T10:08:46.118Z,104012.97
2023-02-06T10:11:16.395Z,104019.16
2023-02-06T10:13:49.835Z,104026.13
2023-02-06T10:16:20.159Z,104020.25
2023-02-06T10:18:51.749Z,104021.38
2023-02-06T10:21:27.548Z,104011.34
2023-02-06T10:23:58.118Z,104027.41
2023-02-06T10:26:25.210Z,104017.06
2023-02-06T10:28:54.091Z,104019.28
2023-02-06T10:31:21.155Z,104018.09
2023-02-06T10:34:01.322Z,104013.34
2023-02-06T10:36:46.059Z,104014.94
2023-02-06T10:39:31.539Z,104002.38
2023-02-06T10:42:15.321Z,104015.56
2023-02-06T10:44:51.240Z,104011.22
2023-02-06T10:47:23.312Z,103989.78
2023-02-06T10:49:53.429Z,103992.59
2023-02-06T10:52:23.345Z,104006.66
2023-02-06T10:54:52.035Z,104001.97
2023-02-06T10:57:24.906Z,103998.19
2023-02-06T10:59:53.970Z,103997.38
2023-02-06T11:02:25.617Z,103992.19
2023-02-06T11:05:24.951Z,103989.72
2023-02-06T11:07:56.142Z,103985.44
2023-02-06T11:10:24.457Z,103972.25
2023-02-06T11:13:01.603Z,103973.53
2023-02-06T11:15:34.603Z,103965.66
2023-02-06T11:18:03.266Z,103972.03
2023-02-06T11:20:32.579Z,103965.13
2023-02-06T11:23:20.126Z,103963.31
2023-02-06T11:25:50.524Z,103957.03
2023-02-06T11:28:19.112Z,103961.13
2023-02-06T11:30:57.993Z,103964.91
2023-02-06T11:33:33.877Z,103953.34
2023-02-06T11:36:01.309Z,103944.59
2023-02-06T11:38:29.510Z,103936.44
2023-02-06T11:40:56.498Z,103927.78
2023-02-06T11:43:24.734Z,103930.69
2023-02-06T11:46:04.650Z,103933.78
2023-02-06T11:48:36.892Z,103929.56
2023-02-06T11:51:04.836Z,103921.41
2023-02-06T11:53:31.730Z,103921.72
2023-02-06T11:56:01.090Z,103911.28
2023-02-06T11:58:28.435Z,103922.00
2023-02-06T12:01:04.295Z,103931.56
2023-02-06T12:03:36.906Z,103929.75
2023-02-06T12:06:42.147Z,103924.28
2023-02-06T12:09:12.806Z,103915.94
2023-02-06T12:12:12.400Z,103914.97
2023-02-06T12:14:42.312Z,103914.97
2023-02-06T12:17:22.267Z,103915.63
2023-02-06T12:19:51.491Z,103917.34
2023-02-06T12:22:21.105Z,103922.00
2023-02-06T12:24:49.966Z,103921.00
2023-02-06T12:27:33.031Z,103919.41
2023-02-06T12:30:03.447Z,103931.31
2023-02-06T12:32:37.824Z,103927.94
2023-02-06T12:35:21.901Z,103922.75
2023-02-06T12:37:53.546Z,103926.34
2023-02-06T12:40:20.071Z,103925.97
2023-02-06T12:42:59.133Z,103918.47
2023-02-06T12:45:32.365Z,103919.56
2023-02-06T12:48:02.377Z,103919.75
2023-02-06T12:50:32.630Z,103911.16
2023-02-06T12:53:04.696Z,103912.94
2023-02-06T12:55:37.464Z,103907.59
2023-02-06T12:58:05.586Z,103916.91
2023-02-06T13:00:42.440Z,103904.75
2023-02-06T13:03:21.995Z,103889.38
2023-02-06T13:06:00.154Z,103896.72
2023-02-06T13:08:36.287Z,103886.16
2023-02-06T13:11:05.831Z,103886.66
2023-02-06T13:13:35.111Z,103880.22
2023-02-06T13:16:02.960Z,103880.50
2023-02-06T13:18:41.971Z,103870.75
2023-02-06T13:21:15.152Z,103863.44
2023-02-06T13:23:49.449Z,103866.31
2023-02-06T13:26:16.794Z,103875.06
2023-02-06T13:28:46.034Z,103861.31
2023-02-06T13:31:24.421Z,103856.63
2023-02-06T13:33:53.579Z,103859.81
2023-02-06T13:36:25.763Z,103859.47
2023-02-06T13:38:57.042Z,103868.03
2023-02-06T13:41:30.831Z,103866.28
2023-02-06T13:43:57.579Z,103868.09
2023-02-06T13:46:33.387Z,103861.81
2023-02-06T13:49:06.182Z,103851.28
2023-02-06T13:51:44.141Z,103856.97
2023-02-06T13:54:31.611Z,103854.09
2023-02-06T13:57:17.254Z,103851.66
2023-02-06T13:59:47.449Z,103857.13
2023-02-06T14:02:23.830Z,103859.13
2023-02-06T14:04:51.357Z,103866.28
2023-02-06T14:07:53.318Z,103855.00
2023-02-06T14:10:36.669Z,103846.75
2023-02-06T14:13:12.831Z,103854.44
2023-02-06T14:15:58.728Z,103857.50
2023-02-06T14:18:36.201Z,103855.00
2023-02-06T14:21:12.864Z,103849.53
2023-02-06T14:24:06.090Z,103837.56
2023-02-06T14:26:57.274Z,103826.66
2023-02-06T14:29:27.003Z,103833.88
2023-02-06T14:32:06.194Z,103832.03
2023-02-06T14:34:42.372Z,103832.94
2023-02-06T14:37:35.501Z,103832.03
2023-02-06T14:40:05.582Z,103830.72
2023-02-06T14:42:40.386Z,103825.31
2023-02-06T14:45:16.519Z,103825.63
2023-02-06T14:47:44.133Z,103815.09
2023-02-06T14:50:30.453Z,103816.13
2023-02-06T14:53:00.048Z,103829.16
2023-02-06T14:55:38.184Z,103827.91
2023-02-06T14:58:06.514Z,103831.69
2023-02-06T15:00:33.605Z,103826.50
2023-02-06T15:03:05.352Z,103832.38
2023-02-06T15:05:33.283Z,103838.34
2023-02-06T15:08:02.432Z,103831.47
2023-02-06T15:10:31.326Z,103836.00
2023-02-06T15:12:58.046Z,103838.53
2023-02-06T15:15:26.889Z,103845.13
2023-02-06T15:17:56.310Z,103846.06
2023-02-06T15:20:28.676Z,103844.63
2023-02-06T15:23:08.002Z,103846.06
2023-02-06T15:25:58.988Z,103840.88
2023-02-06T15:28:28.208Z,103837.50
2023-02-06T15:30:56.572Z,103837.94
2023-02-06T15:33:33.165Z,103840.53
2023-02-06T15:36:01.507Z,103835.00
2023-02-06T15:38:29.294Z,103839.84
2023-02-06T15:40:59.034Z,103835.28
2023-02-06T15:43:27.007Z,103834.91
2023-02-06T15:45:56.145Z,103837.69
2023-02-06T15:48:25.339Z,103829.63
2023-02-06T15:50:55.585Z,103827.88
2023-02-06T15:53:35.932Z,103824.53
2023-02-06T15:56:05.306Z,103820.59
2023-02-06T15:58:33.056Z,103812.28
2023-02-06T16:01:01.267Z,103814.63
2023-02-06T16:03:29.456Z,103811.41
2023-02-06T16:05:57.742Z,103808.16
2023-02-06T16:08:47.862Z,103813.34
2023-02-06T16:11:34.288Z,103809.78
2023-02-06T16:14:02.116Z,103817.66
2023-02-06T16:16:29.174Z,103805.47
2023-02-06T16:18:58.510Z,103799.22
2023-02-06T16:21:31.206Z,103796.63
2023-02-06T16:24:03.082Z,103802.44
2023-02-06T16:26:49.100Z,103810.88
2023-02-06T16:29:24.126Z,103797.63
2023-02-06T16:32:12.565Z,103801.56
2023-02-06T16:34:41.303Z,103798.31
2023-02-06T16:37:19.844Z,103799.03
2023-02-06T16:39:46.915Z,103805.84
2023-02-06T16:42:21.595Z,103802.06
2023-02-06T16:44:51.116Z,103798.31
2023-02-06T16:47:19.800Z,103789.59
2023-02-06T16:49:49.625Z,103801.34
2023-02-06T16:52:19.304Z,103789.72
2023-02-06T16:54:46.601Z,103784.69
2023-02-06T16:57:19.272Z,103789.56
2023-02-06T16:59:46.639Z,103794.50
2023-02-06T17:02:14.122Z,103790.53
2023-02-06T17:04:41.370Z,103787.31
2023-02-06T17:07:13.073Z,103785.19
2023-02-06T17:09:40.124Z,103790.84
2023-02-06T17:12:11.766Z,103796.63
2023-02-06T17:14:38.427Z,103795.22
2023-02-06T17:17:05.334Z,103794.25
2023-02-06T17:19:32.096Z,103796.66
2023-02-06T17:21:58.783Z,103802.53
2023-02-06T17:24:25.535Z,103796.25
2023-02-06T17:26:52.262Z,103792.66
2023-02-06T17:29:20.294Z,103798.75
2023-02-06T17:31:48.083Z,103799.63
2023-02-06T17:34:15.291Z,103803.00
2023-02-06T17:36:43.155Z,103801.25
2023-02-06T17:39:11.945Z,103801.06
2023-02-06T17:41:39.586Z,103801.06
2023-02-06T17:44:06.859Z,103801.25
2023-02-06T17:46:33.540Z,103806.03
2023-02-06T17:49:00.254Z,103798.88
2023-02-06T17:51:27.117Z,103803.84
2023-02-06T17:53:54.404Z,103806.06
2023-02-06T17:56:21.574Z,103800.56
2023-02-06T17:58:48.262Z,103800.19
2023-02-06T18:01:16.862Z,103795.72
2023-02-06T18:03:43.786Z,103799.28
2023-02-06T18:06:11.541Z,103793.72
2023-02-06T18:08:40.018Z,103803.88
2023-02-06T18:11:11.595Z,103792.41
2023-02-06T18:13:39.745Z,103805.06
2023-02-06T18:16:07.274Z,103806.44
2023-02-06T18:18:34.866Z,103803.06
2023-02-06T18:21:01.820Z,103793.31
2023-02-06T18:23:28.537Z,103794.72
2023-02-06T18:26:00.361Z,103803.06
2023-02-06T18:28:27.365Z,103797.69
2023-02-06T18:30:54.683Z,103794.00
2023-02-06T18:33:21.643Z,103799.69
2023-02-06T18:35:51.016Z,103802.84
2023-02-06T18:38:18.179Z,103799.06
2023-02-06T18:40:47.972Z,103789.41
2023-02-06T18:43:14.800Z,103793.50
2023-02-06T18:45:42.593Z,103794.88
2023-02-06T18:48:11.738Z,103803.00
2023-02-06T18:50:39.514Z,103801.22
2023-02-06T18:53:07.778Z,103803.97
2023-02-06T18:55:37.192Z,103814.09
2023-02-06T18:58:05.181Z,103818.25
2023-02-06T19:00:34.444Z,103811.88
2023-02-06T19:03:01.746Z,103816.84
2023-02-06T19:05:30.618Z,103817.53
2023-02-06T19:07:57.587Z,103819.00
2023-02-06T19:10:25.847Z,103821.38
2023-02-06T19:12:52.586Z,103823.06
2023-02-06T19:15:20.062Z,103823.97
2023-02-06T19:17:46.799Z,103812.81
2023-02-06T19:20:14.365Z,103812.63
2023-02-06T19:22:41.385Z,103810.72
2023-02-06T19:25:10.883Z,103815.78
2023-02-06T19:27:38.742Z,103819.94
2023-02-06T19:30:07.843Z,103824.81
2023-02-06T19:32:35.432Z,103817.63
2023-02-06T19:35:02.512Z,103821.88
2023-02-06T19:37:29.099Z,103834.03
2023-02-06T19:39:56.330Z,103823.56
2023-02-06T19:42:23.167Z,103831.09
2023-02-06T19:44:51.896Z,103833.81
2023-02-06T19:47:18.906Z,103831.00
2023-02-06T19:49:45.550Z,103833.81
2023-02-06T19:52:14.490Z,103838.97
2023-02-06T19:54:41.524Z,103842.25
2023-02-06T19:57:08.883Z,103841.91
2023-02-06T19:59:35.812Z,103842.47
2023-02-06T20:02:03.339Z,103841.03
2023-02-06T20:04:32.306Z,103831.41
2023-02-06T20:06:59.753Z,103837.22
2023-02-06T20:09:28.380Z,103828.28
2023-02-06T20:11:55.933Z,103822.69
2023-02-06T20:14:24.168Z,103830.97
2023-02-06T20:16:51.555Z,103830.97
2023-02-06T20:19:20.226Z,103828.75
2023-02-06T20:21:49.072Z,103831.09
2023-02-06T20:24:21.855Z,103839.31
2023-02-06T20:26:52.977Z,103829.91
2023-02-06T20:29:29.161Z,103835.50
2023-02-06T20:31:57.521Z,103832.59
2023-02-06T20:34:24.483Z,103830.94
2023-02-06T20:36:52.666Z,103831.47
2023-02-06T20:39:20.241Z,103837.19
2023-02-06T20:41:49.550Z,103841.13
2023-02-06T20:44:18.134Z,103844.25
2023-02-06T20:46:46.414Z,103844.13
2023-02-06T20:49:17.768Z,103840.69
2023-02-06T20:51:44.628Z,103845.34
2023-02-06T20:54:11.625Z,103842.44
2023-02-06T20:56:39.252Z,103839.66
2023-02-06T20:59:06.489Z,103837.53
2023-02-06T21:01:34.397Z,103834.72
2023-02-06T21:04:03.833Z,103841.53
2023-02-06T21:06:30.822Z,103838.75
2023-02-06T21:09:00.209Z,103840.97
2023-02-06T21:11:29.558Z,103828.53
2023-02-06T21:13:58.468Z,103836.34
2023-02-06T21:16:27.160Z,103825.81
2023-02-06T21:18:55.083Z,103826.63
2023-02-06T21:21:21.791Z,103818.06
2023-02-06T21:23:48.544Z,103819.97
2023-02-06T21:26:17.860Z,103816.41
2023-02-06T21:28:46.249Z,103813.03
2023-02-06T21:31:14.903Z,103816.16
2023-02-06T21:33:41.571Z,103816.72
2023-02-06T21:36:08.583Z,103811.44
2023-02-06T21:38:36.478Z,103815.72
2023-02-06T21:41:07.419Z,103813.69
2023-02-06T21:43:34.991Z,103807.75
2023-02-06T21:46:02.194Z,103813.69
2023-02-06T21:48:30.490Z,103810.06
2023-02-06T21:50:57.954Z,103805.81
2023-02-06T21:53:25.235Z,103813.44
2023-02-06T21:55:52.061Z,103813.22
2023-02-06T21:58:19.668Z,103808.06
2023-02-06T22:00:47.409Z,103821.00
2023-02-06T22:03:14.977Z,103819.44
2023-02-06T22:05:42.179Z,103809.13
2023-02-06T22:08:11.782Z,103813.22
2023-02-06T22:10:38.415Z,103815.00
2023-02-06T22:13:05.970Z,103812.19
2023-02-06T22:15:33.364Z,103814.75
2023-02-06T22:18:00.250Z,103804.91
2023-02-06T22:20:27.532Z,103808.28
2023-02-06T22:22:54.972Z,103802.91
2023-02-06T22:25:21.773Z,103801.09
2023-02-06T22:27:48.642Z,103805.50
2023-02-06T22:30:15.722Z,103802.44
2023-02-06T22:32:43.165Z,103801.41
2023-02-06T22:35:10.343Z,103801.31
2023-02-06T22:37:38.438Z,103797.91
2023-02-06T22:40:05.479Z,103790.72
2023-02-06T22:42:32.286Z,103799.72
2023-02-06T22:44:59.665Z,103792.75
2023-02-06T22:47:26.407Z,103807.75
2023-02-06T22:49:53.524Z,103809.72
2023-02-06T22:52:39.429Z,103805.22
2023-02-06T22:55:06.642Z,103817.88
2023-02-06T22:57:35.329Z,103816.84
2023-02-06T23:00:09.257Z,103811.25
2023-02-06T23:02:37.447Z,103819.50
2023-02-06T23:05:04.604Z,103814.34
2023-02-06T23:07:31.781Z,103815.91
2023-02-06T23:09:59.174Z,103812.53
2023-02-06T23:12:25.934Z,103812.78
2023-02-06T23:14:52.574Z,103814.56
2023-02-06T23:17:19.540Z,103809.66
2023-02-06T23:19:46.392Z,103814.56
2023-02-06T23:22:13.547Z,103812.53
2023-02-06T23:24:41.532Z,103803.81
2023-02-06T23:27:08.531Z,103789.91
2023-02-06T23:29:35.261Z,103785.66
2023-02-06T23:32:02.223Z,103793.28
2023-02-06T23:34:29.201Z,103784.75
2023-02-06T23:36:56.184Z,103780.94
2023-02-06T23:39:23.099Z,103798.59
2023-02-06T23:41:50.140Z,103791.78
2023-02-06T23:44:16.853Z,103789.88
2023-02-06T23:46:43.713Z,103805.97
2023-02-06T23:49:10.997Z,103828.59
2023-02-06T23:51:40.315Z,103826.78
2023-02-06T23:54:09.102Z,103816.19
2023-02-06T23:56:36.528Z,103824.97
2023-02-06T23:59:04.416Z,103826.78
